createdAt,value
2019-03-02T00:01:56.661Z,22.50
2019-03-02T00:04:26.007Z,25.57
2019-03-02T00:06:55.381Z,22.97
2019-03-02T00:09:24.844Z,23.90
2019-03-02T00:11:58.147Z,24.63
2019-03-02T00:14:29.025Z,22.80
2019-03-02T00:16:59.184Z,22.07
2019-03-02T00:19:29.098Z,23.83
2019-03-02T00:22:06.566Z,22.60
2019-03-02T00:24:33.726Z,22.70
2019-03-02T00:27:03.056Z,24.00
2019-03-02T00:29:32.441Z,23.17
2019-03-02T00:32:05.808Z,23.40
2019-03-02T00:34:36.551Z,24.85
2019-03-02T00:37:06.684Z,25.20
2019-03-02T00:39:36.085Z,25.20
2019-03-02T00:42:05.464Z,23.53
2019-03-02T00:44:35.714Z,22.05
2019-03-02T00:47:09.141Z,23.80
2019-03-02T00:49:38.484Z,22.43
2019-03-02T00:52:08.233Z,23.20
2019-03-02T00:54:37.982Z,22.47
2019-03-02T00:57:07.363Z,23.87
2019-03-02T00:59:39.393Z,24.37
2019-03-02T01:02:08.956Z,23.93
2019-03-02T01:04:38.341Z,24.40
2019-03-02T01:07:09.181Z,24.80
2019-03-02T01:09:43.670Z,25.33
2019-03-02T01:12:14.861Z,26.67
2019-03-02T01:14:44.245Z,24.53
2019-03-02T01:17:14.373Z,24.47
2019-03-02T01:19:44.212Z,25.03
2019-03-02T01:22:16.406Z,23.57
2019-03-02T01:24:44.740Z,23.10
2019-03-02T01:27:14.207Z,25.68
2019-03-02T01:29:43.601Z,24.10
2019-03-02T01:32:16.198Z,25.03
2019-03-02T01:34:44.060Z,25.12
2019-03-02T01:37:13.457Z,25.57
2019-03-02T01:39:44.421Z,25.30
2019-03-02T01:42:15.178Z,25.23
2019-03-02T01:44:44.496Z,27.80
2019-03-02T01:47:15.750Z,25.83
2019-03-02T01:49:45.329Z,28.07
2019-03-02T01:52:21.078Z,24.43
2019-03-02T01:54:52.519Z,27.00
2019-03-02T01:57:25.194Z,27.24
2019-03-02T01:59:55.595Z,26.37
2019-03-02T02:02:25.394Z,27.17
2019-03-02T02:04:57.526Z,27.70
2019-03-02T02:07:25.893Z,27.70
2019-03-02T02:09:55.664Z,28.37
2019-03-02T02:12:28.740Z,29.27
2019-03-02T02:15:07.050Z,27.40
2019-03-02T02:17:37.624Z,26.10
2019-03-02T02:20:11.023Z,29.18
2019-03-02T02:22:39.602Z,25.50
2019-03-02T02:25:11.557Z,27.62
2019-03-02T02:27:40.921Z,28.90
2019-03-02T02:30:18.850Z,29.20
2019-03-02T02:32:45.444Z,28.13
2019-03-02T02:35:16.877Z,27.50
2019-03-02T02:37:46.271Z,28.40
2019-03-02T02:40:18.970Z,27.64
2019-03-02T02:42:53.303Z,28.63
2019-03-02T02:45:23.759Z,29.10
2019-03-02T02:47:54.478Z,26.90
2019-03-02T02:50:29.653Z,29.17
2019-03-02T02:52:55.294Z,29.20
2019-03-02T02:55:25.441Z,28.17
2019-03-02T02:57:54.915Z,28.37
2019-03-02T03:00:25.322Z,30.57
2019-03-02T03:02:54.764Z,28.27
2019-03-02T03:05:24.132Z,29.42
2019-03-02T03:07:55.846Z,28.43
2019-03-02T03:10:39.065Z,29.07
2019-03-02T03:13:09.212Z,29.80
2019-03-02T03:15:56.990Z,29.60
2019-03-02T03:18:26.402Z,29.50
2019-03-02T03:20:55.799Z,29.50
2019-03-02T03:23:26.498Z,29.23
2019-03-02T03:25:58.387Z,29.70
2019-03-02T03:28:30.545Z,31.17
2019-03-02T03:30:59.158Z,29.43
2019-03-02T03:33:41.992Z,30.10
2019-03-02T03:36:02.524Z,30.48
2019-03-02T03:38:31.845Z,30.10
2019-03-02T03:41:05.276Z,31.10
2019-03-02T03:43:41.874Z,30.43
2019-03-02T03:46:03.882Z,30.83
2019-03-02T03:48:33.298Z,32.33
2019-03-02T03:51:03.999Z,30.57
2019-03-02T03:53:38.263Z,30.47
2019-03-02T03:56:08.222Z,31.13
2019-03-02T03:58:41.313Z,29.13
2019-03-02T04:01:17.088Z,29.77
2019-03-02T04:03:47.134Z,31.40
2019-03-02T04:06:13.946Z,30.70
2019-03-02T04:08:43.639Z,30.70
2019-03-02T04:11:13.445Z,30.50
2019-03-02T04:13:44.760Z,27.17
2019-03-02T04:16:20.611Z,33.48
2019-03-02T04:18:58.006Z,29.82
2019-03-02T04:21:32.817Z,30.70
2019-03-02T04:24:03.277Z,30.40
2019-03-02T04:26:36.517Z,31.73
2019-03-02T04:29:10.169Z,31.03
2019-03-02T04:31:36.396Z,30.12
2019-03-02T04:34:05.780Z,31.23
2019-03-02T04:36:38.129Z,30.47
2019-03-02T04:39:09.702Z,28.03
2019-03-02T04:41:40.849Z,29.63
2019-03-02T04:44:10.334Z,30.07
2019-03-02T04:46:39.724Z,30.50
2019-03-02T04:49:10.846Z,30.70
2019-03-02T04:51:40.578Z,29.07
2019-03-02T04:54:09.964Z,31.20
2019-03-02T04:56:42.658Z,26.57
2019-03-02T04:59:12.940Z,31.65
2019-03-02T05:01:43.739Z,31.10
2019-03-02T05:04:13.443Z,31.80
2019-03-02T05:06:43.821Z,28.17
2019-03-02T05:09:13.659Z,31.40
2019-03-02T05:11:44.846Z,31.20
2019-03-02T05:14:18.495Z,31.47
2019-03-02T05:16:48.931Z,33.00
2019-03-02T05:19:18.869Z,34.30
2019-03-02T05:21:49.296Z,32.60
2019-03-02T05:24:19.285Z,34.80
2019-03-02T05:26:49.184Z,34.10
2019-03-02T05:29:19.133Z,32.80
2019-03-02T05:31:48.533Z,32.17
2019-03-02T05:34:18.064Z,31.97
2019-03-02T05:36:48.501Z,32.10
2019-03-02T05:39:18.470Z,32.17
2019-03-02T05:41:49.126Z,32.23
2019-03-02T05:44:19.786Z,33.10
2019-03-02T05:46:49.467Z,33.90
2019-03-02T05:49:19.813Z,32.90
2019-03-02T05:51:50.054Z,33.07
2019-03-02T05:54:19.609Z,35.23
2019-03-02T05:56:49.553Z,31.60
2019-03-02T05:59:18.927Z,30.77
2019-03-02T06:01:50.236Z,30.77
2019-03-02T06:04:22.066Z,27.60
2019-03-02T06:06:53.739Z,31.30
2019-03-02T06:09:22.221Z,29.67
2019-03-02T06:11:52.212Z,27.63
2019-03-02T06:14:21.596Z,29.95
2019-03-02T06:16:53.862Z,30.27
2019-03-02T06:19:24.312Z,30.90
2019-03-02T06:21:53.720Z,27.97
2019-03-02T06:24:23.156Z,28.67
2019-03-02T06:26:53.338Z,26.70
2019-03-02T06:29:22.724Z,28.17
2019-03-02T06:31:54.001Z,28.25
2019-03-02T06:34:27.145Z,27.80
2019-03-02T06:36:57.044Z,26.90
2019-03-02T06:39:28.093Z,25.97
2019-03-02T06:41:58.390Z,25.20
2019-03-02T06:44:30.782Z,23.73
2019-03-02T06:47:02.214Z,24.70
2019-03-02T06:49:31.628Z,24.50
2019-03-02T06:52:01.017Z,23.50
2019-03-02T06:54:30.453Z,25.23
2019-03-02T06:57:00.175Z,22.30
2019-03-02T06:59:29.553Z,22.83
2019-03-02T07:01:59.723Z,23.50
2019-03-02T07:04:33.191Z,23.70
2019-03-02T07:07:06.096Z,22.30
2019-03-02T07:09:35.118Z,23.12
2019-03-02T07:12:05.944Z,23.50
2019-03-02T07:14:36.176Z,23.23
2019-03-02T07:17:05.898Z,22.77
2019-03-02T07:19:42.707Z,24.02
2019-03-02T07:22:13.513Z,23.62
2019-03-02T07:24:46.397Z,25.00
2019-03-02T07:27:16.445Z,24.57
2019-03-02T07:29:45.834Z,25.80
2019-03-02T07:32:16.609Z,26.90
2019-03-02T07:34:46.253Z,28.70
2019-03-02T07:37:16.297Z,29.63
2019-03-02T07:39:45.683Z,26.43
2019-03-02T07:42:16.497Z,27.75
2019-03-02T07:44:45.913Z,28.10
2019-03-02T07:47:20.615Z,27.65
2019-03-02T07:49:50.696Z,26.47
2019-03-02T07:52:20.200Z,28.70
2019-03-02T07:54:58.101Z,29.20
2019-03-02T07:57:20.809Z,30.17
2019-03-02T07:59:52.404Z,31.30
2019-03-02T08:02:21.773Z,29.55
2019-03-02T08:04:51.504Z,29.50
2019-03-02T08:07:20.888Z,31.30
2019-03-02T08:09:51.469Z,30.17
2019-03-02T08:12:24.794Z,30.40
2019-03-02T08:14:53.561Z,27.90
2019-03-02T08:17:22.961Z,30.20
2019-03-02T08:19:52.702Z,33.43
2019-03-02T08:22:22.161Z,29.72
2019-03-02T08:24:51.678Z,30.80
2019-03-02T08:27:21.092Z,31.90
2019-03-02T08:29:53.912Z,31.13
2019-03-02T08:32:22.090Z,28.35
2019-03-02T08:34:52.621Z,29.90
2019-03-02T08:37:22.560Z,31.70
2019-03-02T08:39:52.147Z,31.23
2019-03-02T08:42:22.008Z,32.08
2019-03-02T08:44:54.070Z,31.10
2019-03-02T08:47:24.524Z,30.47
2019-03-02T08:49:53.946Z,30.60
2019-03-02T08:52:23.657Z,29.93
2019-03-02T08:54:53.554Z,30.20
2019-03-02T08:57:25.347Z,32.05
2019-03-02T08:59:56.224Z,29.23
2019-03-02T09:02:26.406Z,29.60
2019-03-02T09:04:55.820Z,30.20
2019-03-02T09:07:27.251Z,29.57
2019-03-02T09:09:57.741Z,28.63
2019-03-02T09:12:28.149Z,29.18
2019-03-02T09:14:57.516Z,29.77
2019-03-02T09:17:28.114Z,30.40
2019-03-02T09:19:59.593Z,28.40
2019-03-02T09:22:30.413Z,24.00
2019-03-02T09:24:59.781Z,28.80
2019-03-02T09:27:30.602Z,28.53
2019-03-02T09:30:00.189Z,29.03
2019-03-02T09:32:33.636Z,27.83
2019-03-02T09:35:03.842Z,28.20
2019-03-02T09:37:33.228Z,29.10
2019-03-02T09:40:03.687Z,26.00
2019-03-02T09:42:37.936Z,26.25
2019-03-02T09:45:07.669Z,26.50
2019-03-02T09:47:37.314Z,28.53
2019-03-02T09:50:10.046Z,27.55
2019-03-02T09:52:40.754Z,26.50
2019-03-02T09:55:10.882Z,27.10
2019-03-02T09:57:47.303Z,26.47
2019-03-02T10:00:19.189Z,27.42
2019-03-02T10:02:50.033Z,27.03
2019-03-02T10:05:19.866Z,24.95
2019-03-02T10:07:49.336Z,26.40
2019-03-02T10:10:19.277Z,26.10
2019-03-02T10:12:51.732Z,23.80
2019-03-02T10:15:24.191Z,24.20
2019-03-02T10:17:53.783Z,23.40
2019-03-02T10:20:23.216Z,23.97
2019-03-02T10:22:54.434Z,24.60
2019-03-02T10:25:25.994Z,23.95
2019-03-02T10:27:57.464Z,22.63
2019-03-02T10:30:28.985Z,22.90
2019-03-02T10:32:58.729Z,23.70
2019-03-02T10:35:29.306Z,24.80
2019-03-02T10:37:59.212Z,23.43
2019-03-02T10:40:31.122Z,26.27
2019-03-02T10:43:01.164Z,24.63
2019-03-02T10:45:33.759Z,24.33
2019-03-02T10:48:06.955Z,22.93
2019-03-02T10:50:37.009Z,25.40
2019-03-02T10:53:06.393Z,23.73
2019-03-02T10:55:36.910Z,22.37
2019-03-02T10:58:10.375Z,24.50
2019-03-02T11:00:41.034Z,22.30
2019-03-02T11:03:13.085Z,23.03
2019-03-02T11:05:56.916Z,23.33
2019-03-02T11:08:44.726Z,22.00
2019-03-02T11:11:44.279Z,23.22
2019-03-02T11:14:27.787Z,20.80
2019-03-02T11:17:06.910Z,18.97
2019-03-02T11:19:54.547Z,20.43
2019-03-02T11:22:44.558Z,19.93
2019-03-02T11:25:30.284Z,20.68
2019-03-02T11:28:25.397Z,18.13
2019-03-02T11:31:23.448Z,17.90
2019-03-02T11:34:09.283Z,18.27
2019-03-02T11:36:57.831Z,20.10
2019-03-02T11:39:40.703Z,20.23
2019-03-02T11:42:15.648Z,19.47
2019-03-02T11:45:03.210Z,19.25
2019-03-02T11:47:51.782Z,20.75
2019-03-02T11:50:54.766Z,19.12
2019-03-02T11:53:29.628Z,18.32
2019-03-02T11:56:10.197Z,19.13
2019-03-02T11:58:58.552Z,18.57
2019-03-02T12:01:37.373Z,18.10
2019-03-02T12:04:37.813Z,19.47
2019-03-02T12:07:26.133Z,18.90
2019-03-02T12:10:17.426Z,18.53
2019-03-02T12:12:58.732Z,18.53
2019-03-02T12:15:35.399Z,18.13
2019-03-02T12:18:26.625Z,16.10
2019-03-02T12:21:06.668Z,15.63
2019-03-02T12:24:15.058Z,17.70
2019-03-02T12:27:14.340Z,17.93
2019-03-02T12:30:25.990Z,18.33
2019-03-02T12:33:22.710Z,17.63
2019-03-02T12:36:01.113Z,18.73
2019-03-02T12:38:52.404Z,17.17
2019-03-02T12:41:39.509Z,18.07
2019-03-02T12:44:27.526Z,16.30
2019-03-02T12:47:14.852Z,17.20
2019-03-02T12:50:23.154Z,15.50
2019-03-02T12:53:24.533Z,17.43
2019-03-02T12:56:32.908Z,17.33
2019-03-02T12:59:35.911Z,16.50
2019-03-02T13:02:38.816Z,16.27
2019-03-02T13:05:43.756Z,15.68
2019-03-02T13:08:38.665Z,17.40
2019-03-02T13:11:33.249Z,17.17
2019-03-02T13:14:20.591Z,17.20
2019-03-02T13:17:17.988Z,16.60
2019-03-02T13:20:06.598Z,15.60
2019-03-02T13:22:50.712Z,17.42
2019-03-02T13:25:47.667Z,17.28
2019-03-02T13:28:23.302Z,15.98
2019-03-02T13:31:11.627Z,17.23
2019-03-02T13:34:11.552Z,17.23
2019-03-02T13:37:08.977Z,17.03
2019-03-02T13:40:00.126Z,16.57
2019-03-02T13:42:50.964Z,18.10
2019-03-02T13:45:32.436Z,17.23
2019-03-02T13:48:10.913Z,17.33
2019-03-02T13:51:08.533Z,18.20
2019-03-02T13:54:04.422Z,17.27
2019-03-02T13:56:53.314Z,18.37
2019-03-02T13:59:53.517Z,18.30
2019-03-02T14:02:41.872Z,17.33
2019-03-02T14:05:42.051Z,16.50
2019-03-02T14:08:28.357Z,18.63
2019-03-02T14:11:24.030Z,17.73
2019-03-02T14:14:08.356Z,15.27
2019-03-02T14:16:56.567Z,16.10
2019-03-02T14:19:37.981Z,17.00
2019-03-02T14:22:26.065Z,17.13
2019-03-02T14:25:19.041Z,17.70
2019-03-02T14:27:59.385Z,17.23
2019-03-02T14:30:43.981Z,16.75
2019-03-02T14:33:25.734Z,15.67
2019-03-02T14:36:16.730Z,17.33
2019-03-02T14:39:03.184Z,14.55
2019-03-02T14:41:48.089Z,18.23
2019-03-02T14:44:37.065Z,16.10
2019-03-02T14:47:36.578Z,15.90
2019-03-02T14:50:27.343Z,16.82
2019-03-02T14:53:14.681Z,15.83
2019-03-02T14:56:15.929Z,17.10
2019-03-02T14:58:56.133Z,16.67
2019-03-02T15:01:44.818Z,16.93
2019-03-02T15:04:39.152Z,18.43
2019-03-02T15:07:22.300Z,18.87
2019-03-02T15:10:03.057Z,16.73
2019-03-02T15:12:58.247Z,17.93
2019-03-02T15:15:42.901Z,17.80
2019-03-02T15:18:44.702Z,18.80
2019-03-02T15:21:27.542Z,17.60
2019-03-02T15:24:16.565Z,17.95
2019-03-02T15:26:55.203Z,18.60
2019-03-02T15:29:51.698Z,18.10
2019-03-02T15:32:53.218Z,19.40
2019-03-02T15:35:33.647Z,23.47
2019-03-02T15:38:23.454Z,22.27
2019-03-02T15:41:21.737Z,19.37
2019-03-02T15:44:10.584Z,17.90
2019-03-02T15:46:50.266Z,18.50
2019-03-02T15:49:26.214Z,18.37
2019-03-02T15:52:07.736Z,18.13
2019-03-02T15:55:04.898Z,19.50
2019-03-02T15:57:48.521Z,20.80
2019-03-02T16:00:38.347Z,18.10
2019-03-02T16:03:41.116Z,18.60
2019-03-02T16:06:19.607Z,17.77
2019-03-02T16:09:18.249Z,18.15
2019-03-02T16:12:13.069Z,18.17
2019-03-02T16:15:03.174Z,19.13
2019-03-02T16:17:43.342Z,17.73
2019-03-02T16:20:30.499Z,19.47
2019-03-02T16:23:20.681Z,19.10
2019-03-02T16:26:29.415Z,17.73
2019-03-02T16:29:19.155Z,19.10
2019-03-02T16:32:05.470Z,17.53
2019-03-02T16:34:53.792Z,18.17
2019-03-02T16:37:53.921Z,17.70
2019-03-02T16:40:30.738Z,17.60
2019-03-02T16:43:34.461Z,20.00
2019-03-02T16:46:12.502Z,21.40
2019-03-02T16:48:55.093Z,22.60
2019-03-02T16:51:36.078Z,21.93
2019-03-02T16:54:36.142Z,20.73
2019-03-02T16:57:30.192Z,24.27
2019-03-02T17:00:11.421Z,26.00
2019-03-02T17:02:51.456Z,19.77
2019-03-02T17:05:38.806Z,18.33
2019-03-02T17:08:31.041Z,17.97
2019-03-02T17:11:19.146Z,19.00
2019-03-02T17:14:09.157Z,18.97
2019-03-02T17:16:53.618Z,16.35
2019-03-02T17:19:31.863Z,17.70
2019-03-02T17:22:12.076Z,16.27
2019-03-02T17:25:00.240Z,16.60
2019-03-02T17:27:54.143Z,17.47
2019-03-02T17:30:36.124Z,15.73
2019-03-02T17:33:31.265Z,15.43
2019-03-02T17:36:20.416Z,18.37
2019-03-02T17:39:18.196Z,17.17
2019-03-02T17:42:19.501Z,18.47
2019-03-02T17:45:20.746Z,19.07
2019-03-02T17:48:09.430Z,19.20
2019-03-02T17:50:58.712Z,15.93
2019-03-02T17:53:46.736Z,16.87
2019-03-02T17:56:47.533Z,17.07
2019-03-02T17:59:39.798Z,19.27
2019-03-02T18:02:20.929Z,18.60
2019-03-02T18:05:18.341Z,20.80
2019-03-02T18:08:13.709Z,20.70
2019-03-02T18:11:13.357Z,23.50
2019-03-02T18:13:58.053Z,21.90
2019-03-02T18:16:41.357Z,20.47
2019-03-02T18:19:11.055Z,19.80
2019-03-02T18:21:41.890Z,18.77
2019-03-02T18:24:13.089Z,16.37
2019-03-02T18:26:44.562Z,16.70
2019-03-02T18:29:18.240Z,17.73
2019-03-02T18:31:47.974Z,18.10
2019-03-02T18:34:24.052Z,17.20
2019-03-02T18:36:53.103Z,16.07
2019-03-02T18:39:25.538Z,16.23
2019-03-02T18:41:54.957Z,16.03
2019-03-02T18:44:24.349Z,17.67
2019-03-02T18:46:54.517Z,18.40
2019-03-02T18:49:47.394Z,18.13
2019-03-02T18:52:28.062Z,18.40
2019-03-02T18:54:57.423Z,20.67
2019-03-02T18:57:26.815Z,19.77
2019-03-02T18:59:56.613Z,19.40
2019-03-02T19:02:29.516Z,20.08
2019-03-02T19:04:59.643Z,21.70
2019-03-02T19:07:29.268Z,22.27
2019-03-02T19:09:59.789Z,23.70
2019-03-02T19:12:33.930Z,24.67
2019-03-02T19:15:03.398Z,23.80
2019-03-02T19:17:43.159Z,22.45
2019-03-02T19:20:14.939Z,20.95
2019-03-02T19:22:45.585Z,20.77
2019-03-02T19:25:16.514Z,21.12
2019-03-02T19:27:45.907Z,18.67
2019-03-02T19:30:17.992Z,19.25
2019-03-02T19:32:47.522Z,19.77
2019-03-02T19:35:18.240Z,19.57
2019-03-02T19:37:49.350Z,18.60
2019-03-02T19:40:22.162Z,18.15
2019-03-02T19:42:51.697Z,17.83
2019-03-02T19:45:22.065Z,17.60
2019-03-02T19:47:52.346Z,17.43
2019-03-02T19:50:21.851Z,16.65
2019-03-02T19:52:52.223Z,15.30
2019-03-02T19:55:21.623Z,17.62
2019-03-02T19:57:51.217Z,21.00
2019-03-02T20:00:22.795Z,17.53
2019-03-02T20:02:56.468Z,15.58
2019-03-02T20:05:27.411Z,18.23
2019-03-02T20:07:58.107Z,17.80
2019-03-02T20:10:27.742Z,16.17
2019-03-02T20:12:57.540Z,16.90
2019-03-02T20:15:27.957Z,18.17
2019-03-02T20:17:57.808Z,17.00
2019-03-02T20:20:27.369Z,17.03
2019-03-02T20:22:57.098Z,17.20
2019-03-02T20:25:28.649Z,16.23
2019-03-02T20:27:57.971Z,16.03
2019-03-02T20:30:27.604Z,18.23
2019-03-02T20:33:00.401Z,17.20
2019-03-02T20:35:30.598Z,17.77
2019-03-02T20:38:00.624Z,17.40
2019-03-02T20:40:30.257Z,17.63
2019-03-02T20:42:59.909Z,16.47
2019-03-02T20:45:29.884Z,18.07
2019-03-02T20:47:59.373Z,16.83
2019-03-02T20:50:28.894Z,18.30
2019-03-02T20:52:58.347Z,17.90
2019-03-02T20:55:28.170Z,16.82
2019-03-02T20:57:57.876Z,17.40
2019-03-02T21:00:28.278Z,15.73
2019-03-02T21:02:57.990Z,17.77
2019-03-02T21:05:28.091Z,16.63
2019-03-02T21:07:57.676Z,16.30
2019-03-02T21:10:27.729Z,15.65
2019-03-02T21:12:57.203Z,17.62
2019-03-02T21:15:32.262Z,16.30
2019-03-02T21:18:01.674Z,16.77
2019-03-02T21:20:31.485Z,16.82
2019-03-02T21:23:02.856Z,17.33
2019-03-02T21:25:34.573Z,18.80
2019-03-02T21:28:04.028Z,17.17
2019-03-02T21:30:33.461Z,19.23
2019-03-02T21:33:03.276Z,18.33
2019-03-02T21:35:34.466Z,19.10
2019-03-02T21:38:05.331Z,18.27
2019-03-02T21:40:34.714Z,17.70
2019-03-02T21:43:05.188Z,19.35
2019-03-02T21:45:34.628Z,19.10
2019-03-02T21:48:04.133Z,18.43
2019-03-02T21:50:33.850Z,19.17
2019-03-02T21:53:06.178Z,19.13
2019-03-02T21:55:35.932Z,17.20
2019-03-02T21:58:05.478Z,18.50
2019-03-02T22:00:35.317Z,17.05
2019-03-02T22:03:05.704Z,17.00
2019-03-02T22:05:35.839Z,17.73
2019-03-02T22:08:05.274Z,18.10
2019-03-02T22:10:38.664Z,17.20
2019-03-02T22:13:11.670Z,15.95
2019-03-02T22:15:43.402Z,16.13
2019-03-02T22:18:13.488Z,16.53
2019-03-02T22:20:47.058Z,16.10
2019-03-02T22:23:19.101Z,14.80
2019-03-02T22:25:50.187Z,15.30
2019-03-02T22:28:22.181Z,15.97
2019-03-02T22:30:51.867Z,16.70
2019-03-02T22:33:21.633Z,16.60
2019-03-02T22:35:51.857Z,16.33
2019-03-02T22:38:24.706Z,15.65
2019-03-02T22:40:55.218Z,15.77
2019-03-02T22:43:26.518Z,15.77
2019-03-02T22:45:56.953Z,15.27
2019-03-02T22:48:26.914Z,15.67
2019-03-02T22:50:56.317Z,15.20
2019-03-02T22:53:27.720Z,15.33
2019-03-02T22:55:57.121Z,13.98
2019-03-02T22:58:31.813Z,13.47
2019-03-02T23:01:49.677Z,13.68
2019-03-02T23:04:23.424Z,13.08
2019-03-02T23:06:53.759Z,12.57
2019-03-02T23:09:25.463Z,12.60
2019-03-02T23:11:58.988Z,11.30
2019-03-02T23:14:29.090Z,10.80
2019-03-02T23:16:59.252Z,10.90
2019-03-02T23:19:29.348Z,11.07
2019-03-02T23:21:59.913Z,11.03
2019-03-02T23:24:29.355Z,11.50
2019-03-02T23:26:59.181Z,11.47
2019-03-02T23:29:32.178Z,9.73
2019-03-02T23:32:02.174Z,10.50
2019-03-02T23:34:37.341Z,10.13
2019-03-02T23:37:09.473Z,11.50
2019-03-02T23:39:38.904Z,10.70
2019-03-02T23:42:10.335Z,9.90
2019-03-02T23:44:39.698Z,10.00
2019-03-02T23:47:10.358Z,10.60
2019-03-02T23:49:41.038Z,10.80
2019-03-02T23:52:12.374Z,10.50
2019-03-02T23:54:42.257Z,9.97
2019-03-02T23:57:11.844Z,11.17
2019-03-02T23:59:41.308Z,10.17
